createdAt,value
2023-05-01T00:00:29.876Z,53.22
2023-05-01T00:02:57.237Z,57.33
2023-05-01T00:05:27.683Z,53.67
2023-05-01T00:07:55.085Z,56.97
2023-05-01T00:10:22.156Z,56.85
2023-05-01T00:12:49.142Z,61.83
2023-05-01T00:15:16.663Z,54.50
2023-05-01T00:17:44.024Z,59.90
2023-05-01T00:20:11.509Z,62.28
2023-05-01T00:22:41.513Z,66.15
2023-05-01T00:25:09.618Z,56.90
2023-05-01T00:27:37.479Z,63.00
2023-05-01T00:30:05.382Z,60.13
2023-05-01T00:32:32.939Z,63.28
2023-05-01T00:35:00.332Z,58.55
2023-05-01T00:37:27.608Z,54.97
2023-05-01T00:39:55.019Z,50.50
2023-05-01T00:42:22.377Z,49.75
2023-05-01T00:44:49.505Z,48.13
2023-05-01T00:47:16.567Z,44.92
2023-05-01T00:49:43.884Z,40.65
2023-05-01T00:52:11.559Z,40.22
2023-05-01T00:54:38.953Z,46.05
2023-05-01T00:57:08.451Z,47.35
2023-05-01T00:59:35.547Z,53.67
2023-05-01T01:02:02.554Z,44.83
2023-05-01T01:04:32.470Z,48.78
2023-05-01T01:07:12.286Z,42.42
2023-05-01T01:10:11.493Z,39.33
2023-05-01T01:13:10.814Z,37.88
2023-05-01T01:15:45.890Z,43.70
2023-05-01T01:18:25.424Z,38.92
2023-05-01T01:21:08.651Z,43.00
2023-05-01T01:24:06.875Z,46.58
2023-05-01T01:26:34.834Z,45.90
2023-05-01T01:29:23.501Z,45.90
2023-05-01T01:32:17.710Z,44.70
2023-05-01T01:34:45.493Z,44.25
2023-05-01T01:37:17.789Z,42.15
2023-05-01T01:40:04.502Z,37.95
2023-05-01T01:42:42.637Z,53.88
2023-05-01T01:45:15.698Z,43.10
2023-05-01T01:47:42.853Z,38.42
2023-05-01T01:50:10.890Z,35.35
2023-05-01T01:52:38.657Z,33.72
2023-05-01T01:55:11.470Z,29.52
2023-05-01T01:57:39.811Z,33.15
2023-05-01T02:00:09.099Z,24.38
2023-05-01T02:02:37.467Z,26.95
2023-05-01T02:05:04.833Z,32.10
2023-05-01T02:07:31.829Z,29.20
2023-05-01T02:09:59.429Z,28.40
2023-05-01T02:12:27.098Z,30.23
2023-05-01T02:14:54.137Z,29.85
2023-05-01T02:17:21.536Z,27.50
2023-05-01T02:19:48.734Z,28.48
2023-05-01T02:22:16.338Z,27.70
2023-05-01T02:24:43.367Z,30.35
2023-05-01T02:27:21.135Z,28.00
2023-05-01T02:29:48.450Z,31.55
2023-05-01T02:32:15.513Z,27.27
2023-05-01T02:34:42.643Z,24.35
2023-05-01T02:37:11.414Z,33.10
2023-05-01T02:39:39.232Z,29.75
2023-05-01T02:42:06.598Z,27.85
2023-05-01T02:44:40.183Z,25.83
2023-05-01T02:47:08.025Z,25.65
2023-05-01T02:49:35.307Z,24.70
2023-05-01T02:52:02.670Z,22.98
2023-05-01T02:54:29.950Z,24.73
2023-05-01T02:56:59.751Z,24.77
2023-05-01T02:59:26.969Z,22.27
2023-05-01T03:01:53.977Z,23.75
2023-05-01T03:04:21.167Z,24.33
2023-05-01T03:06:48.306Z,23.88
2023-05-01T03:09:15.465Z,24.02
2023-05-01T03:11:42.601Z,26.48
2023-05-01T03:14:11.359Z,22.73
2023-05-01T03:16:38.708Z,23.92
2023-05-01T03:19:06.317Z,29.60
2023-05-01T03:21:34.104Z,23.77
2023-05-01T03:24:01.101Z,22.75
2023-05-01T03:26:28.630Z,23.00
2023-05-01T03:28:55.808Z,21.33
2023-05-01T03:31:22.818Z,23.70
2023-05-01T03:33:50.300Z,20.45
2023-05-01T03:36:17.672Z,21.00
2023-05-01T03:38:44.924Z,20.15
2023-05-01T03:41:12.062Z,18.98
2023-05-01T03:43:39.070Z,21.05
2023-05-01T03:46:06.281Z,19.75
2023-05-01T03:48:33.384Z,19.58
2023-05-01T03:51:00.511Z,17.58
2023-05-01T03:53:27.647Z,19.48
2023-05-01T03:55:54.680Z,21.92
2023-05-01T03:58:22.533Z,28.88
2023-05-01T04:00:50.955Z,25.77
2023-05-01T04:03:18.226Z,22.30
2023-05-01T04:05:45.474Z,18.83
2023-05-01T04:08:12.665Z,22.13
2023-05-01T04:10:39.799Z,23.10
2023-05-01T04:13:07.149Z,19.38
2023-05-01T04:15:34.254Z,18.50
2023-05-01T04:18:01.900Z,20.02
2023-05-01T04:20:29.272Z,23.60
2023-05-01T04:22:56.387Z,26.23
2023-05-01T04:25:23.592Z,27.27
2023-05-01T04:27:50.910Z,21.08
2023-05-01T04:30:18.175Z,21.95
2023-05-01T04:32:45.472Z,22.50
2023-05-01T04:35:12.698Z,16.08
2023-05-01T04:37:39.783Z,20.45
2023-05-01T04:40:09.833Z,17.52
2023-05-01T04:42:38.730Z,19.75
2023-05-01T04:45:06.432Z,17.98
2023-05-01T04:47:33.474Z,21.60
2023-05-01T04:50:00.561Z,24.42
2023-05-01T04:52:27.589Z,16.05
2023-05-01T04:54:58.070Z,19.95
2023-05-01T04:57:25.146Z,17.60
2023-05-01T04:59:52.337Z,18.95
2023-05-01T05:02:19.479Z,18.20
2023-05-01T05:04:46.500Z,20.05
2023-05-01T05:07:13.610Z,13.85
2023-05-01T05:09:40.686Z,18.30
2023-05-01T05:12:08.018Z,15.65
2023-05-01T05:14:35.006Z,17.27
2023-05-01T05:17:02.252Z,16.15
2023-05-01T05:19:29.247Z,18.85
2023-05-01T05:21:56.218Z,18.38
2023-05-01T05:24:23.608Z,19.50
2023-05-01T05:26:53.701Z,19.20
2023-05-01T05:29:20.721Z,20.08
2023-05-01T05:31:47.859Z,17.42
2023-05-01T05:34:15.194Z,16.42
2023-05-01T05:36:42.426Z,16.92
2023-05-01T05:39:09.598Z,21.63
2023-05-01T05:41:36.885Z,20.15
2023-05-01T05:44:04.064Z,17.35
2023-05-01T05:46:31.691Z,19.17
2023-05-01T05:48:58.858Z,19.77
2023-05-01T05:51:25.870Z,14.25
2023-05-01T05:53:52.855Z,19.70
2023-05-01T05:56:19.842Z,16.33
2023-05-01T05:58:46.839Z,15.07
2023-05-01T06:01:15.187Z,18.60
2023-05-01T06:03:42.393Z,18.20
2023-05-01T06:06:12.872Z,16.02
2023-05-01T06:08:40.008Z,17.98
2023-05-01T06:11:08.801Z,15.77
2023-05-01T06:13:35.838Z,16.95
2023-05-01T06:16:02.875Z,14.75
2023-05-01T06:18:30.659Z,17.73
2023-05-01T06:20:57.647Z,15.52
2023-05-01T06:23:25.064Z,18.73
2023-05-01T06:25:52.395Z,17.67
2023-05-01T06:28:19.760Z,22.05
2023-05-01T06:30:46.828Z,21.27
2023-05-01T06:33:14.035Z,18.42
2023-05-01T06:35:41.137Z,19.15
2023-05-01T06:38:08.546Z,17.08
2023-05-01T06:40:36.194Z,15.82
2023-05-01T06:43:03.593Z,20.35
2023-05-01T06:45:30.706Z,17.58
2023-05-01T06:47:58.119Z,20.25
2023-05-01T06:50:25.280Z,20.65
2023-05-01T06:52:52.851Z,20.48
2023-05-01T06:55:19.959Z,27.88
2023-05-01T06:57:47.012Z,22.40
2023-05-01T07:00:15.176Z,21.83
2023-05-01T07:02:43.112Z,23.38
2023-05-01T07:05:10.234Z,21.98
2023-05-01T07:07:38.908Z,21.40
2023-05-01T07:10:09.551Z,25.33
2023-05-01T07:12:36.649Z,25.58
2023-05-01T07:15:04.464Z,22.98
2023-05-01T07:17:31.535Z,23.65
2023-05-01T07:19:59.114Z,18.75
2023-05-01T07:22:26.485Z,20.63
2023-05-01T07:24:53.519Z,21.13
2023-05-01T07:27:20.796Z,23.77
2023-05-01T07:29:48.358Z,22.30
2023-05-01T07:32:15.553Z,20.10
2023-05-01T07:34:42.638Z,19.35
2023-05-01T07:37:09.633Z,23.35
2023-05-01T07:39:36.685Z,18.70
2023-05-01T07:42:04.091Z,20.83
2023-05-01T07:44:31.271Z,20.30
2023-05-01T07:47:06.524Z,23.30
2023-05-01T07:49:40.140Z,18.88
2023-05-01T07:52:10.130Z,21.55
2023-05-01T07:54:37.293Z,21.95
2023-05-01T07:57:06.784Z,20.05
2023-05-01T07:59:33.783Z,20.73
2023-05-01T08:02:01.011Z,19.70
2023-05-01T08:04:28.402Z,18.98
2023-05-01T08:06:55.547Z,18.52
2023-05-01T08:09:22.743Z,18.73
2023-05-01T08:11:49.755Z,18.73
2023-05-01T08:14:17.835Z,18.55
2023-05-01T08:16:45.085Z,15.00
2023-05-01T08:19:12.257Z,14.75
2023-05-01T08:21:39.392Z,12.18
2023-05-01T08:24:09.374Z,11.60
2023-05-01T08:26:36.392Z,14.77
2023-05-01T08:29:03.425Z,14.38
2023-05-01T08:31:30.981Z,13.00
2023-05-01T08:33:58.082Z,12.82
2023-05-01T08:36:26.098Z,12.82
2023-05-01T08:38:53.192Z,10.38
2023-05-01T08:41:22.114Z,12.27
2023-05-01T08:43:49.636Z,10.00
2023-05-01T08:46:24.260Z,10.45
2023-05-01T08:48:51.864Z,7.07
2023-05-01T08:51:21.247Z,9.45
2023-05-01T08:53:50.793Z,8.93
2023-05-01T08:56:18.329Z,9.23
2023-05-01T08:58:46.102Z,7.93
2023-05-01T09:01:15.348Z,5.65
2023-05-01T09:03:44.648Z,5.93
2023-05-01T09:06:12.112Z,9.57
2023-05-01T09:08:39.392Z,6.55
2023-05-01T09:11:06.671Z,7.38
2023-05-01T09:13:33.703Z,5.35
2023-05-01T09:16:01.297Z,7.25
2023-05-01T09:18:28.526Z,5.65
2023-05-01T09:20:57.788Z,4.63
2023-05-01T09:23:24.956Z,7.35
2023-05-01T09:25:52.123Z,5.07
2023-05-01T09:28:19.315Z,4.63
2023-05-01T09:30:46.583Z,5.95
2023-05-01T09:33:14.879Z,6.93
2023-05-01T09:35:54.942Z,6.47
2023-05-01T09:38:26.199Z,6.43
2023-05-01T09:41:03.938Z,5.53
2023-05-01T09:43:31.739Z,9.13
2023-05-01T09:46:11.761Z,6.13
2023-05-01T09:48:39.028Z,9.13
2023-05-01T09:51:24.091Z,4.88
2023-05-01T09:53:52.491Z,5.75
2023-05-01T09:56:21.627Z,6.60
2023-05-01T09:58:50.486Z,6.85
2023-05-01T10:01:17.556Z,5.03
2023-05-01T10:03:46.294Z,7.20
2023-05-01T10:06:27.736Z,5.13
2023-05-01T10:08:55.035Z,4.15
2023-05-01T10:11:27.233Z,6.65
2023-05-01T10:14:10.548Z,6.28
2023-05-01T10:16:38.807Z,5.85
2023-05-01T10:19:06.402Z,3.80
2023-05-01T10:21:34.372Z,5.82
2023-05-01T10:24:03.822Z,4.85
2023-05-01T10:26:30.906Z,3.00
2023-05-01T10:29:01.537Z,3.60
2023-05-01T10:31:29.837Z,2.70
2023-05-01T10:33:57.169Z,6.88
2023-05-01T10:36:33.142Z,3.67
2023-05-01T10:39:00.909Z,5.10
2023-05-01T10:41:59.363Z,6.05
2023-05-01T10:44:27.314Z,4.53
2023-05-01T10:46:55.143Z,4.10
2023-05-01T10:49:22.457Z,4.57
2023-05-01T10:51:59.357Z,5.20
2023-05-01T10:54:33.290Z,5.68
2023-05-01T10:57:01.941Z,5.90
2023-05-01T10:59:53.454Z,6.47
2023-05-01T11:02:23.815Z,6.45
2023-05-01T11:07:19.384Z,4.82
2023-05-01T11:09:58.976Z,5.28
2023-05-01T11:12:53.996Z,6.15
2023-05-01T11:15:34.159Z,5.88
2023-05-01T11:18:02.739Z,3.95
2023-05-01T11:20:30.146Z,5.05
2023-05-01T11:22:57.485Z,4.75
2023-05-01T11:25:27.463Z,3.72
2023-05-01T11:27:56.407Z,6.60
2023-05-01T11:30:23.453Z,6.40
2023-05-01T11:32:51.355Z,6.00
2023-05-01T11:35:23.087Z,7.55
2023-05-01T11:37:51.607Z,5.18
2023-05-01T11:40:24.572Z,5.90
2023-05-01T11:42:52.389Z,6.47
2023-05-01T11:45:19.871Z,3.22
2023-05-01T11:47:47.176Z,6.75
2023-05-01T11:50:14.347Z,5.43
2023-05-01T11:52:53.586Z,4.72
2023-05-01T11:55:21.183Z,4.60
2023-05-01T11:57:54.494Z,4.95
2023-05-01T12:00:34.073Z,5.18
2023-05-01T12:03:06.633Z,3.57
2023-05-01T12:05:37.499Z,4.72
2023-05-01T12:08:21.309Z,4.10
2023-05-01T12:10:53.643Z,4.85
2023-05-01T12:13:20.829Z,5.10
2023-05-01T12:15:49.552Z,4.28
2023-05-01T12:18:17.402Z,4.18
2023-05-01T12:20:50.444Z,4.18
2023-05-01T12:23:18.548Z,4.75
2023-05-01T12:25:46.007Z,8.65
2023-05-01T12:28:14.385Z,3.22
2023-05-01T12:30:42.363Z,3.50
2023-05-01T12:33:16.859Z,3.47
2023-05-01T12:35:47.473Z,5.72
2023-05-01T12:38:19.006Z,4.65
2023-05-01T12:40:56.940Z,4.85
2023-05-01T12:43:34.775Z,5.70
2023-05-01T12:46:02.492Z,5.40
2023-05-01T12:48:30.474Z,5.65
2023-05-01T12:50:57.637Z,7.75
2023-05-01T12:53:25.994Z,5.75
2023-05-01T12:55:57.325Z,5.80
2023-05-01T12:58:25.139Z,6.70
2023-05-01T13:00:53.745Z,8.43
2023-05-01T13:03:28.284Z,4.47
2023-05-01T13:05:56.661Z,5.20
2023-05-01T13:08:36.316Z,4.35
2023-05-01T13:11:24.194Z,4.38
2023-05-01T13:13:51.769Z,8.57
2023-05-01T13:16:20.399Z,4.00
2023-05-01T13:18:49.021Z,5.57
2023-05-01T13:21:18.553Z,6.40
2023-05-01T13:23:59.101Z,4.50
2023-05-01T13:26:29.288Z,4.70
2023-05-01T13:28:57.364Z,5.35
2023-05-01T13:31:24.916Z,5.45
2023-05-01T13:33:56.341Z,4.35
2023-05-01T13:36:26.622Z,4.72
2023-05-01T13:39:09.045Z,5.22
2023-05-01T13:41:36.709Z,5.75
2023-05-01T13:44:04.780Z,5.32
2023-05-01T13:46:32.198Z,7.00
2023-05-01T13:48:59.750Z,5.82
2023-05-01T13:51:27.432Z,4.13
2023-05-01T13:53:55.767Z,4.60
2023-05-01T13:56:26.270Z,5.13
2023-05-01T13:58:53.389Z,6.40
2023-05-01T14:01:21.538Z,4.72
2023-05-01T14:03:49.294Z,6.22
2023-05-01T14:06:22.190Z,4.80
2023-05-01T14:08:49.403Z,4.47
2023-05-01T14:11:17.062Z,7.55
2023-05-01T14:13:47.919Z,5.03
2023-05-01T14:16:26.016Z,6.18
2023-05-01T14:18:57.701Z,5.28
2023-05-01T14:21:27.428Z,5.53
2023-05-01T14:23:54.832Z,4.47
2023-05-01T14:26:24.238Z,11.40
2023-05-01T14:28:51.569Z,9.82
2023-05-01T14:31:26.089Z,11.82
2023-05-01T14:34:03.125Z,6.00
2023-05-01T14:36:33.259Z,8.50
2023-05-01T14:39:01.508Z,7.43
2023-05-01T14:41:30.031Z,8.10
2023-05-01T14:43:57.467Z,16.10
2023-05-01T14:46:31.254Z,7.47
2023-05-01T14:48:59.067Z,9.77
2023-05-01T14:51:26.199Z,10.10
2023-05-01T14:53:53.373Z,8.68
2023-05-01T14:56:21.167Z,8.23
2023-05-01T14:58:49.110Z,8.00
2023-05-01T15:01:17.099Z,10.70
2023-05-01T15:03:45.708Z,9.02
2023-05-01T15:06:12.997Z,7.40
2023-05-01T15:08:40.387Z,6.80
2023-05-01T15:11:07.880Z,10.60
2023-05-01T15:13:34.978Z,6.80
2023-05-01T15:16:03.182Z,7.85
2023-05-01T15:18:30.271Z,8.95
2023-05-01T15:20:57.485Z,10.35
2023-05-01T15:23:27.455Z,8.60
2023-05-01T15:25:54.917Z,6.30
2023-05-01T15:28:22.186Z,7.15
2023-05-01T15:30:49.524Z,9.10
2023-05-01T15:33:19.268Z,12.73
2023-05-01T15:35:47.161Z,6.53
2023-05-01T15:38:14.350Z,7.97
2023-05-01T15:40:43.438Z,8.55
2023-05-01T15:43:10.490Z,11.07
2023-05-01T15:45:43.272Z,8.30
2023-05-01T15:48:11.472Z,6.00
2023-05-01T15:50:38.690Z,8.60
2023-05-01T15:53:05.795Z,7.53
2023-05-01T15:55:37.428Z,8.40
2023-05-01T15:58:10.780Z,6.65
2023-05-01T16:00:48.891Z,9.05
2023-05-01T16:03:22.194Z,9.07
2023-05-01T16:05:49.776Z,8.77
2023-05-01T16:08:23.639Z,7.72
2023-05-01T16:10:51.051Z,7.82
2023-05-01T16:13:18.104Z,6.25
2023-05-01T16:15:45.238Z,9.05
2023-05-01T16:18:18.669Z,6.95
2023-05-01T16:20:46.042Z,7.13
2023-05-01T16:23:15.281Z,5.13
2023-05-01T16:25:43.138Z,6.97
2023-05-01T16:28:10.391Z,5.85
2023-05-01T16:30:43.546Z,7.55
2023-05-01T16:33:19.317Z,6.57
2023-05-01T16:35:49.781Z,7.75
2023-05-01T16:38:18.181Z,9.98
2023-05-01T16:40:46.194Z,6.07
2023-05-01T16:43:13.368Z,9.25
2023-05-01T16:45:40.616Z,5.57
2023-05-01T16:48:07.718Z,6.43
2023-05-01T16:50:36.763Z,7.88
2023-05-01T16:53:03.901Z,9.55
2023-05-01T16:55:31.880Z,8.15
2023-05-01T16:57:59.150Z,9.10
2023-05-01T17:00:29.401Z,6.95
2023-05-01T17:02:59.114Z,7.30
2023-05-01T17:05:26.567Z,8.02
2023-05-01T17:07:54.014Z,12.60
2023-05-01T17:10:21.354Z,9.15
2023-05-01T17:12:48.609Z,8.13
2023-05-01T17:15:15.844Z,9.32
2023-05-01T17:17:43.423Z,7.50
2023-05-01T17:20:11.626Z,10.82
2023-05-01T17:22:39.042Z,10.38
2023-05-01T17:25:06.839Z,11.48
2023-05-01T17:27:33.997Z,10.07
2023-05-01T17:30:01.431Z,9.80
2023-05-01T17:32:36.316Z,15.07
2023-05-01T17:35:05.220Z,9.55
2023-05-01T17:37:32.470Z,10.05
2023-05-01T17:39:59.758Z,13.65
2023-05-01T17:42:27.155Z,9.98
2023-05-01T17:44:54.289Z,9.90
2023-05-01T17:47:23.177Z,13.95
2023-05-01T17:49:52.666Z,8.18
2023-05-01T17:52:19.962Z,10.55
2023-05-01T17:54:47.123Z,10.02
2023-05-01T17:57:14.260Z,10.38
2023-05-01T17:59:42.023Z,9.00
2023-05-01T18:02:09.292Z,12.73
2023-05-01T18:04:37.949Z,12.73
2023-05-01T18:07:05.327Z,12.25
2023-05-01T18:09:32.420Z,16.23
2023-05-01T18:11:59.670Z,13.13
2023-05-01T18:14:26.893Z,11.45
2023-05-01T18:16:54.116Z,13.65
2023-05-01T18:19:21.328Z,12.95
2023-05-01T18:21:48.444Z,11.88
2023-05-01T18:24:15.567Z,10.50
2023-05-01T18:26:42.783Z,11.15
2023-05-01T18:29:09.794Z,12.95
2023-05-01T18:31:39.444Z,11.93
2023-05-01T18:34:10.467Z,14.10
2023-05-01T18:36:37.677Z,9.48
2023-05-01T18:39:04.817Z,9.00
2023-05-01T18:41:31.818Z,11.18
2023-05-01T18:44:01.491Z,10.13
2023-05-01T18:46:28.647Z,9.43
2023-05-01T18:48:56.001Z,9.80
2023-05-01T18:51:23.120Z,16.10
2023-05-01T18:53:50.226Z,24.08
2023-05-01T18:56:17.248Z,33.55
2023-05-01T18:58:44.263Z,32.28
2023-05-01T19:01:11.369Z,37.75
2023-05-01T19:03:38.520Z,51.47
2023-05-01T19:06:05.612Z,47.13
2023-05-01T19:08:33.040Z,38.72
2023-05-01T19:11:00.034Z,41.13
2023-05-01T19:13:27.237Z,39.28
2023-05-01T19:15:54.520Z,37.15
2023-05-01T19:18:23.966Z,32.83
2023-05-01T19:20:51.119Z,30.30
2023-05-01T19:23:18.325Z,31.65
2023-05-01T19:25:45.428Z,38.72
2023-05-01T19:28:12.451Z,39.95
2023-05-01T19:30:39.718Z,47.10
2023-05-01T19:33:07.006Z,44.67
2023-05-01T19:35:35.288Z,60.30
2023-05-01T19:38:02.797Z,53.92
2023-05-01T19:40:29.974Z,77.28
2023-05-01T19:42:57.051Z,87.10
2023-05-01T19:45:24.292Z,110.68
2023-05-01T19:48:04.557Z,117.50
2023-05-01T19:50:33.409Z,112.95
2023-05-01T19:53:00.942Z,101.65
2023-05-01T19:55:28.552Z,61.03
2023-05-01T19:57:55.822Z,102.68
2023-05-01T20:00:24.230Z,126.47
2023-05-01T20:02:54.011Z,153.93
2023-05-01T20:05:21.650Z,168.65
2023-05-01T20:07:49.119Z,158.38
2023-05-01T20:10:17.395Z,203.20
2023-05-01T20:12:44.566Z,212.23
2023-05-01T20:15:14.740Z,214.68
2023-05-01T20:17:42.537Z,229.40
2023-05-01T20:20:10.910Z,250.48
2023-05-01T20:22:38.071Z,232.50
2023-05-01T20:25:09.384Z,238.02
2023-05-01T20:27:37.369Z,228.23
2023-05-01T20:30:04.817Z,247.98
2023-05-01T20:32:32.116Z,96.88
2023-05-01T20:35:00.501Z,44.72
2023-05-01T20:37:27.600Z,40.90
2023-05-01T20:39:54.938Z,91.68
2023-05-01T20:42:22.575Z,100.80
2023-05-01T20:44:49.668Z,106.07
2023-05-01T20:47:16.769Z,152.68
2023-05-01T20:49:46.845Z,140.52
2023-05-01T20:52:16.543Z,134.23
2023-05-01T20:54:43.624Z,48.45
2023-05-01T20:57:10.886Z,51.95
2023-05-01T20:59:39.889Z,79.22
2023-05-01T21:02:07.432Z,101.88
2023-05-01T21:04:34.678Z,93.60
2023-05-01T21:07:01.722Z,93.43
2023-05-01T21:09:29.078Z,79.00
2023-05-01T21:11:56.282Z,87.53
2023-05-01T21:14:23.330Z,90.10
2023-05-01T21:16:50.540Z,93.63
2023-05-01T21:19:17.568Z,75.82
2023-05-01T21:21:44.638Z,74.30
2023-05-01T21:24:14.392Z,58.28
2023-05-01T21:26:41.503Z,58.80
2023-05-01T21:29:09.900Z,50.80
2023-05-01T21:31:37.107Z,48.40
2023-05-01T21:34:04.365Z,39.30
2023-05-01T21:36:31.568Z,42.83
2023-05-01T21:39:00.441Z,41.35
2023-05-01T21:41:27.544Z,43.70
2023-05-01T21:43:54.649Z,41.60
2023-05-01T21:46:21.813Z,37.47
2023-05-01T21:48:52.025Z,35.70
2023-05-01T21:51:19.562Z,37.25
2023-05-01T21:53:46.815Z,39.40
2023-05-01T21:56:14.709Z,41.22
2023-05-01T21:58:41.749Z,38.72
2023-05-01T22:01:09.678Z,38.97
2023-05-01T22:03:42.486Z,34.70
2023-05-01T22:06:09.695Z,35.22
2023-05-01T22:08:37.363Z,38.55
2023-05-01T22:11:05.465Z,37.67
2023-05-01T22:13:33.879Z,48.50
2023-05-01T22:16:01.090Z,37.80
2023-05-01T22:18:28.348Z,39.45
2023-05-01T22:20:55.488Z,38.63
2023-05-01T22:23:22.714Z,33.55
2023-05-01T22:25:49.857Z,41.47
2023-05-01T22:28:17.977Z,38.15
2023-05-01T22:30:45.685Z,32.60
2023-05-01T22:33:12.868Z,31.33
2023-05-01T22:35:39.930Z,34.88
2023-05-01T22:38:07.032Z,36.03
2023-05-01T22:40:34.916Z,42.17
2023-05-01T22:43:01.938Z,42.00
2023-05-01T22:45:29.145Z,37.10
2023-05-01T22:47:56.521Z,34.53
2023-05-01T22:50:23.701Z,38.70
2023-05-01T22:52:50.881Z,33.38
2023-05-01T22:55:17.986Z,38.20
2023-05-01T22:57:45.787Z,28.20
2023-05-01T23:00:13.352Z,30.10
2023-05-01T23:02:41.096Z,27.25
2023-05-01T23:05:09.256Z,28.17
2023-05-01T23:07:36.844Z,25.23
2023-05-01T23:10:04.193Z,26.90
2023-05-01T23:12:31.974Z,25.73
2023-05-01T23:14:59.185Z,29.80
2023-05-01T23:17:34.872Z,25.98
2023-05-01T23:20:02.277Z,28.67
2023-05-01T23:22:30.212Z,29.13
2023-05-01T23:24:57.530Z,31.75
2023-05-01T23:27:24.608Z,27.67
2023-05-01T23:29:57.237Z,25.88
2023-05-01T23:32:26.976Z,30.70
2023-05-01T23:35:26.635Z,29.80
2023-05-01T23:37:53.985Z,30.10
2023-05-01T23:40:21.283Z,28.05
2023-05-01T23:42:48.524Z,23.48
2023-05-01T23:45:16.845Z,29.70
2023-05-01T23:47:54.024Z,26.80
2023-05-01T23:50:21.525Z,27.27
2023-05-01T23:52:48.852Z,28.35
2023-05-01T23:55:17.397Z,25.38
2023-05-01T23:57:44.575Z,27.23
